createdAt,value
2018-07-31T00:00:34.725Z,91.71
2018-07-31T00:01:43.592Z,92.1
2018-07-31T00:02:52.459Z,92.49
2018-07-31T00:04:01.331Z,92.39
2018-07-31T00:05:10.351Z,92.49
2018-07-31T00:06:19.774Z,92.19
2018-07-31T00:07:28.642Z,91.9
2018-07-31T00:08:37.510Z,92.39
2018-07-31T00:09:46.652Z,92.68
2018-07-31T00:10:55.768Z,93.35
2018-07-31T00:12:05.193Z,93.26
2018-07-31T00:13:14.057Z,93.07
2018-07-31T00:14:22.923Z,93.65
2018-07-31T00:15:31.789Z,93.94
2018-07-31T00:16:40.754Z,94.42
2018-07-31T00:17:49.621Z,94.42
2018-07-31T00:18:58.487Z,95.2
2018-07-31T00:20:07.355Z,95.05
2018-07-31T00:21:16.221Z,94.52
2018-07-31T00:22:25.090Z,94.37
2018-07-31T00:23:33.958Z,94.86
2018-07-31T00:24:42.827Z,94.86
2018-07-31T00:25:52.249Z,95.25
2018-07-31T00:27:01.119Z,94.86
2018-07-31T00:28:10.185Z,94.67
2018-07-31T00:29:19.052Z,95.25
2018-07-31T00:30:28.473Z,95.25
2018-07-31T00:31:37.341Z,94.96
2018-07-31T00:32:46.482Z,94.67
2018-07-31T00:33:55.501Z,94.67
2018-07-31T00:35:04.367Z,95.05
2018-07-31T00:36:13.238Z,94.47
2018-07-31T00:37:22.103Z,94.28
2018-07-31T00:38:30.969Z,94.37
2018-07-31T00:39:40.166Z,94.47
2018-07-31T00:40:49.032Z,95.05
2018-07-31T00:41:57.899Z,95.05
2018-07-31T00:43:07.042Z,94.86
2018-07-31T00:44:15.908Z,94.96
2018-07-31T00:45:24.825Z,95.15
2018-07-31T00:46:33.694Z,95.05
2018-07-31T00:47:42.834Z,94.37
2018-07-31T00:48:51.976Z,95.05
2018-07-31T00:50:00.841Z,94.76
2018-07-31T00:51:10.130Z,94.37
2018-07-31T00:52:19.275Z,94.23
2018-07-31T00:53:28.155Z,95.39
2018-07-31T00:54:37.296Z,94.57
2018-07-31T00:55:46.438Z,94.33
2018-07-31T00:56:55.454Z,94.81
2018-07-31T00:58:04.597Z,95.01
2018-07-31T00:59:13.467Z,95.78
2018-07-31T01:00:22.614Z,95.39
2018-07-31T01:01:31.755Z,95.2
2018-07-31T01:02:40.776Z,94.23
2018-07-31T01:03:49.646Z,95.01
2018-07-31T01:04:58.506Z,95.1
2018-07-31T01:06:07.372Z,94.91
2018-07-31T01:07:16.237Z,95.49
2018-07-31T01:08:25.451Z,95.29
2018-07-31T01:09:34.319Z,94.91
2018-07-31T01:10:43.190Z,94.81
2018-07-31T01:11:52.055Z,94.81
2018-07-31T01:13:00.918Z,95.59
2018-07-31T01:14:09.834Z,95.78
2018-07-31T01:15:18.704Z,95.68
2018-07-31T01:16:27.575Z,95.15
2018-07-31T01:17:36.715Z,95.44
2018-07-31T01:18:45.581Z,95.15
2018-07-31T01:19:54.793Z,94.57
2018-07-31T01:21:03.660Z,95.64
2018-07-31T01:22:12.524Z,95.54
2018-07-31T01:23:21.389Z,94.96
2018-07-31T01:24:30.253Z,94.76
2018-07-31T01:25:39.268Z,95.34
2018-07-31T01:26:48.132Z,95.93
2018-07-31T01:27:56.998Z,96.02
2018-07-31T01:29:05.862Z,95.93
2018-07-31T01:30:14.729Z,95.83
2018-07-31T01:31:24.047Z,95.73
2018-07-31T01:32:32.912Z,96.41
2018-07-31T01:33:41.776Z,95.73
2018-07-31T01:34:50.642Z,95.64
2018-07-31T01:35:59.509Z,95.78
2018-07-31T01:37:08.523Z,96.22
2018-07-31T01:38:17.389Z,96.41
2018-07-31T01:39:26.253Z,95.49
2018-07-31T01:40:35.117Z,95.68
2018-07-31T01:41:44.264Z,95.68
2018-07-31T01:42:53.138Z,95.4
2018-07-31T01:44:01.996Z,96.36
2018-07-31T01:45:10.861Z,95.49
2018-07-31T01:46:19.725Z,95.59
2018-07-31T01:47:28.595Z,95.98
2018-07-31T01:48:37.461Z,95.4
2018-07-31T01:49:46.325Z,94.53
2018-07-31T01:50:55.195Z,94.43
2018-07-31T01:52:04.337Z,93.75
2018-07-31T01:53:13.477Z,94.91
2018-07-31T01:54:22.697Z,95.4
2018-07-31T01:55:31.566Z,94.72
2018-07-31T01:56:40.432Z,95.01
2018-07-31T01:57:49.299Z,95.1
2018-07-31T01:58:58.440Z,94.82
2018-07-31T02:00:07.635Z,94.91
2018-07-31T02:01:16.499Z,94.33
2018-07-31T02:02:25.369Z,94.62
2018-07-31T02:03:34.233Z,94.24
2018-07-31T02:04:43.096Z,93.75
2018-07-31T02:05:52.313Z,93.66
2018-07-31T02:07:01.473Z,93.46
2018-07-31T02:08:10.328Z,93.75
2018-07-31T02:09:19.193Z,93.13
2018-07-31T02:10:28.058Z,93.9
2018-07-31T02:11:37.524Z,93.08
2018-07-31T02:12:46.389Z,93.75
2018-07-31T02:13:55.534Z,93.23
2018-07-31T02:15:04.402Z,92.35
2018-07-31T02:16:13.543Z,92.55
2018-07-31T02:17:22.560Z,92.88
2018-07-31T02:18:31.380Z,93.37
2018-07-31T02:19:40.246Z,92.25
2018-07-31T02:20:49.112Z,92.21
2018-07-31T02:21:57.976Z,91.87
2018-07-31T02:23:06.840Z,92.11
2018-07-31T02:24:15.702Z,92.25
2018-07-31T02:25:24.570Z,92.25
2018-07-31T02:26:33.712Z,92.11
2018-07-31T02:27:42.576Z,92.55
2018-07-31T02:28:51.721Z,92.59
2018-07-31T02:30:00.871Z,93.03
2018-07-31T02:31:09.741Z,92.88
2018-07-31T02:32:18.883Z,92.25
2018-07-31T02:33:28.028Z,92.16
2018-07-31T02:34:36.893Z,92.35
2018-07-31T02:35:46.039Z,92.55
2018-07-31T02:36:55.461Z,91.87
2018-07-31T02:38:04.880Z,93.37
2018-07-31T02:39:14.018Z,92.45
2018-07-31T02:40:23.316Z,91.97
2018-07-31T02:41:32.186Z,92.07
2018-07-31T02:42:41.609Z,92.45
2018-07-31T02:43:50.780Z,93.32
2018-07-31T02:44:59.648Z,93.03
2018-07-31T02:46:08.613Z,93.23
2018-07-31T02:47:18.314Z,92.74
2018-07-31T02:48:27.467Z,93.13
2018-07-31T02:49:36.946Z,93.32
2018-07-31T02:50:46.089Z,93.23
2018-07-31T02:51:55.337Z,92.93
2018-07-31T02:53:04.204Z,93.13
2018-07-31T02:54:13.071Z,93.41
2018-07-31T02:55:21.940Z,93.13
2018-07-31T02:56:30.803Z,93.13
2018-07-31T02:57:39.774Z,93.51
2018-07-31T02:58:49.201Z,93.23
2018-07-31T02:59:58.350Z,93.71
2018-07-31T03:01:07.225Z,93.41
2018-07-31T03:02:16.379Z,93.41
2018-07-31T03:03:25.479Z,92.83
2018-07-31T03:04:34.626Z,93.13
2018-07-31T03:05:43.490Z,93.32
2018-07-31T03:06:52.358Z,93.23
2018-07-31T03:08:01.265Z,93.71
2018-07-31T03:09:10.853Z,93.23
2018-07-31T03:10:20.000Z,93.61
2018-07-31T03:11:29.148Z,93.71
2018-07-31T03:12:38.295Z,93.41
2018-07-31T03:13:47.163Z,93.32
2018-07-31T03:14:56.177Z,93.66
2018-07-31T03:16:05.614Z,94.19
2018-07-31T03:17:14.494Z,93.85
2018-07-31T03:18:23.358Z,94.19
2018-07-31T03:19:32.504Z,94.57
2018-07-31T03:20:42.126Z,94.92
2018-07-31T03:21:51.553Z,94.72
2018-07-31T03:23:00.698Z,94.96
2018-07-31T03:24:09.845Z,95.4
2018-07-31T03:25:18.711Z,95.59
2018-07-31T03:26:28.181Z,95.2
2018-07-31T03:27:37.051Z,96.08
2018-07-31T03:28:45.916Z,96.56
2018-07-31T03:29:55.062Z,96.36
2018-07-31T03:31:04.491Z,96.41
2018-07-31T03:32:14.008Z,96.99
2018-07-31T03:33:22.870Z,96.89
2018-07-31T03:34:31.737Z,96.61
2018-07-31T03:35:40.876Z,96.51
2018-07-31T03:36:50.019Z,96.99
2018-07-31T03:37:59.407Z,96.41
2018-07-31T03:39:08.546Z,96.7
2018-07-31T03:40:17.685Z,97.09
2018-07-31T03:41:26.550Z,97.28
2018-07-31T03:42:35.413Z,96.89
2018-07-31T03:43:44.330Z,97.86
2018-07-31T03:44:53.196Z,96.89
2018-07-31T03:46:02.339Z,97.19
2018-07-31T03:47:11.202Z,96.8
2018-07-31T03:48:20.068Z,96.8
2018-07-31T03:49:29.079Z,96.89
2018-07-31T03:50:38.503Z,97.67
2018-07-31T03:51:47.367Z,98.15
2018-07-31T03:52:56.512Z,97.96
2018-07-31T03:54:05.655Z,97.72
2018-07-31T03:55:14.575Z,97.57
2018-07-31T03:56:23.512Z,97.62
2018-07-31T03:57:32.301Z,96.94
2018-07-31T03:58:41.165Z,97.42
2018-07-31T03:59:50.304Z,96.75
2018-07-31T04:00:59.166Z,97.04
2018-07-31T04:02:08.316Z,96.94
2018-07-31T04:03:17.181Z,96.94
2018-07-31T04:04:26.046Z,96.84
2018-07-31T04:05:35.013Z,96.84
2018-07-31T04:06:44.701Z,96.94
2018-07-31T04:07:53.564Z,96.84
2018-07-31T04:09:02.428Z,96.27
2018-07-31T04:10:11.292Z,96.36
2018-07-31T04:11:20.159Z,95.98
2018-07-31T04:12:29.400Z,96.36
2018-07-31T04:13:38.267Z,96.36
2018-07-31T04:14:47.132Z,95.88
2018-07-31T04:15:56.276Z,96.17
2018-07-31T04:17:05.160Z,96.08
2018-07-31T04:18:14.503Z,95.98
2018-07-31T04:19:23.366Z,95.88
2018-07-31T04:20:32.231Z,95.88
2018-07-31T04:21:41.100Z,95.21
2018-07-31T04:22:49.965Z,95.31
2018-07-31T04:23:59.384Z,96.27
2018-07-31T04:25:08.253Z,95.59
2018-07-31T04:26:17.114Z,95.98
2018-07-31T04:27:25.981Z,95.4
2018-07-31T04:28:34.846Z,95.69
2018-07-31T04:29:44.134Z,95.4
2018-07-31T04:30:53.560Z,95.31
2018-07-31T04:32:02.423Z,95.31
2018-07-31T04:33:11.289Z,95.5
2018-07-31T04:34:20.150Z,95.11
2018-07-31T04:35:29.014Z,95.4
2018-07-31T04:36:37.878Z,95.11
2018-07-31T04:37:46.742Z,95.21
2018-07-31T04:38:55.605Z,95.01
2018-07-31T04:40:04.469Z,94.43
2018-07-31T04:41:13.489Z,94.43
2018-07-31T04:42:23.147Z,94.63
2018-07-31T04:43:32.371Z,94.43
2018-07-31T04:44:41.517Z,94.43
2018-07-31T04:45:50.381Z,94.63
2018-07-31T04:46:59.247Z,94.34
2018-07-31T04:48:08.115Z,94.05
2018-07-31T04:49:17.263Z,94.43
2018-07-31T04:50:26.858Z,93.76
2018-07-31T04:51:35.879Z,94.43
2018-07-31T04:52:44.745Z,94.43
2018-07-31T04:53:53.610Z,94.43
2018-07-31T04:55:02.479Z,94.53
2018-07-31T04:56:11.349Z,94.15
2018-07-31T04:57:20.214Z,93.76
2018-07-31T04:58:29.075Z,94.24
2018-07-31T04:59:37.943Z,94.15
2018-07-31T05:00:46.808Z,94.05
2018-07-31T05:01:55.951Z,94.15
2018-07-31T05:03:04.817Z,94.15
2018-07-31T05:04:13.689Z,94.15
2018-07-31T05:05:22.554Z,94.43
2018-07-31T05:06:31.697Z,93.47
2018-07-31T05:07:40.561Z,93.8
2018-07-31T05:08:49.426Z,94.34
2018-07-31T05:09:58.292Z,93.85
2018-07-31T05:11:07.201Z,93.76
2018-07-31T05:12:16.389Z,94.68
2018-07-31T05:13:25.250Z,94.29
2018-07-31T05:14:34.114Z,94.68
2018-07-31T05:15:43.263Z,94.15
2018-07-31T05:16:52.131Z,94.87
2018-07-31T05:18:00.994Z,94.15
2018-07-31T05:19:09.858Z,94.05
2018-07-31T05:20:18.724Z,94.29
2018-07-31T05:21:27.590Z,94.2
2018-07-31T05:22:36.453Z,94.2
2018-07-31T05:23:45.318Z,93.8
2018-07-31T05:24:54.203Z,93.9
2018-07-31T05:26:03.070Z,94.48
2018-07-31T05:27:12.213Z,93.23
2018-07-31T05:28:21.084Z,93.71
2018-07-31T05:29:29.944Z,93.62
2018-07-31T05:30:38.807Z,93.13
2018-07-31T05:31:47.952Z,93.71
2018-07-31T05:32:57.113Z,94.38
2018-07-31T05:34:06.571Z,93.13
2018-07-31T05:35:15.437Z,94
2018-07-31T05:36:24.305Z,93.23
2018-07-31T05:37:33.167Z,93.13
2018-07-31T05:38:42.035Z,93.42
2018-07-31T05:39:51.183Z,93.52
2018-07-31T05:41:00.052Z,93.62
2018-07-31T05:42:08.917Z,93.13
2018-07-31T05:43:17.783Z,93.23
2018-07-31T05:44:26.701Z,93.13
2018-07-31T05:45:35.566Z,93.27
2018-07-31T05:46:44.432Z,92.94
2018-07-31T05:47:53.299Z,92.41
2018-07-31T05:49:02.166Z,93.18
2018-07-31T05:50:11.318Z,93.18
2018-07-31T05:51:20.741Z,93.37
2018-07-31T05:52:29.608Z,93.18
2018-07-31T05:53:38.750Z,92.69
2018-07-31T05:54:47.616Z,92.5
2018-07-31T05:55:56.480Z,92.5
2018-07-31T05:57:05.501Z,93.18
2018-07-31T05:58:14.367Z,93.37
2018-07-31T05:59:23.508Z,92.89
2018-07-31T06:00:32.460Z,92.98
2018-07-31T06:01:41.328Z,93.27
2018-07-31T06:02:50.198Z,93.18
2018-07-31T06:03:59.065Z,92.89
2018-07-31T06:05:07.930Z,92.55
2018-07-31T06:06:16.798Z,92.6
2018-07-31T06:07:25.664Z,92.35
2018-07-31T06:08:34.530Z,91.92
2018-07-31T06:09:43.398Z,92.79
2018-07-31T06:10:52.543Z,92.69
2018-07-31T06:12:01.406Z,92.69
2018-07-31T06:13:10.273Z,92.31
2018-07-31T06:14:19.141Z,92.69
2018-07-31T06:15:28.007Z,92.65
2018-07-31T06:16:37.148Z,92.21
2018-07-31T06:17:46.012Z,92.25
2018-07-31T06:18:54.880Z,91.97
2018-07-31T06:20:03.747Z,92.65
2018-07-31T06:21:12.611Z,92.55
2018-07-31T06:22:21.479Z,92.25
2018-07-31T06:23:30.960Z,92.35
2018-07-31T06:24:39.828Z,93.03
2018-07-31T06:25:48.972Z,92.55
2018-07-31T06:26:57.846Z,92.45
2018-07-31T06:28:06.706Z,92.35
2018-07-31T06:29:15.571Z,91.97
2018-07-31T06:30:24.438Z,92.74
2018-07-31T06:31:33.662Z,92.07
2018-07-31T06:32:42.536Z,92.45
2018-07-31T06:33:52.040Z,92.35
2018-07-31T06:35:01.179Z,92.25
2018-07-31T06:36:10.044Z,92.21
2018-07-31T06:37:18.908Z,92.25
2018-07-31T06:38:27.774Z,92.45
2018-07-31T06:39:36.640Z,92.4
2018-07-31T06:40:45.507Z,92.25
2018-07-31T06:41:54.372Z,92.45
2018-07-31T06:43:03.668Z,92.79
2018-07-31T06:44:12.529Z,92.16
2018-07-31T06:45:21.404Z,92.3
2018-07-31T06:46:30.267Z,92.98
2018-07-31T06:47:39.134Z,92.21
2018-07-31T06:48:48.276Z,92.88
2018-07-31T06:49:57.416Z,92.49
2018-07-31T06:51:06.335Z,92.69
2018-07-31T06:52:15.203Z,92.59
2018-07-31T06:53:24.347Z,92.69
2018-07-31T06:54:33.222Z,92.69
2018-07-31T06:55:42.368Z,92.4
2018-07-31T06:56:51.291Z,92.59
2018-07-31T06:58:00.102Z,92.3
2018-07-31T06:59:08.967Z,92.21
2018-07-31T07:00:18.184Z,91.43
2018-07-31T07:01:27.332Z,92.3
2018-07-31T07:02:36.208Z,92.4
2018-07-31T07:03:45.076Z,91.43
2018-07-31T07:04:54.220Z,92.21
2018-07-31T07:06:03.802Z,92.21
2018-07-31T07:07:12.668Z,91.33
2018-07-31T07:08:21.534Z,91.43
2018-07-31T07:09:30.403Z,91.63
2018-07-31T07:10:39.268Z,92.25
2018-07-31T07:11:48.516Z,92.44
2018-07-31T07:12:57.385Z,92.06
2018-07-31T07:14:06.523Z,91.48
2018-07-31T07:15:15.393Z,91.09
2018-07-31T07:16:24.259Z,90.9
2018-07-31T07:17:33.276Z,91.58
2018-07-31T07:18:42.141Z,91.28
2018-07-31T07:19:51.009Z,91.38
2018-07-31T07:20:59.876Z,92.25
2018-07-31T07:22:08.749Z,91.58
2018-07-31T07:23:17.893Z,90.99
2018-07-31T07:24:26.757Z,91.42
2018-07-31T07:25:35.629Z,90.84
2018-07-31T07:26:44.770Z,91.33
2018-07-31T07:27:53.667Z,91.14
2018-07-31T07:29:03.248Z,91.42
2018-07-31T07:30:12.113Z,90.84
2018-07-31T07:31:20.982Z,89.78
2018-07-31T07:32:29.849Z,91.62
2018-07-31T07:33:38.759Z,90.56
2018-07-31T07:34:47.582Z,90.99
2018-07-31T07:35:56.451Z,90.41
2018-07-31T07:37:05.316Z,90.89
2018-07-31T07:38:14.465Z,89.53
2018-07-31T07:39:23.330Z,89.05
2018-07-31T07:40:32.193Z,88.76
2018-07-31T07:41:41.058Z,90.21
2018-07-31T07:42:50.482Z,90.6
2018-07-31T07:43:59.350Z,90.02
2018-07-31T07:45:08.276Z,89.58
2018-07-31T07:46:17.430Z,89.58
2018-07-31T07:47:26.635Z,88.81
2018-07-31T07:48:36.351Z,89.29
2018-07-31T07:49:45.732Z,89.29
2018-07-31T07:50:54.595Z,88.9
2018-07-31T07:52:03.675Z,88.03
2018-07-31T07:53:13.023Z,88.61
2018-07-31T07:54:22.281Z,90.06
2018-07-31T07:55:31.323Z,88.81
2018-07-31T07:56:40.256Z,88.42
2018-07-31T07:57:49.309Z,88.9
2018-07-31T07:58:58.446Z,89.87
2018-07-31T08:00:07.603Z,89.39
2018-07-31T08:01:16.872Z,89.58
2018-07-31T08:02:26.254Z,90.36
2018-07-31T08:03:35.528Z,89.72
2018-07-31T08:04:44.710Z,90.2
2018-07-31T08:05:53.870Z,89.62
2018-07-31T08:07:03.188Z,90.3
2018-07-31T08:08:12.236Z,90.4
2018-07-31T08:09:21.216Z,90.11
2018-07-31T08:10:30.518Z,90.2
2018-07-31T08:11:39.583Z,90.2
2018-07-31T08:12:48.589Z,90.25
2018-07-31T08:13:58.195Z,90.54
2018-07-31T08:15:07.965Z,90.06
2018-07-31T08:16:17.372Z,90.34
2018-07-31T08:17:26.443Z,90.64
2018-07-31T08:18:35.524Z,90.16
2018-07-31T08:19:44.712Z,90.44
2018-07-31T08:20:54.087Z,90.34
2018-07-31T08:22:03.104Z,90.16
2018-07-31T08:23:12.744Z,89.13
2018-07-31T08:24:21.883Z,89.18
2018-07-31T08:25:30.958Z,88.26
2018-07-31T08:26:40.367Z,88.06
2018-07-31T08:27:49.354Z,88.74
2018-07-31T08:28:58.516Z,88.93
2018-07-31T08:30:07.495Z,89.81
2018-07-31T08:31:16.415Z,89.13
2018-07-31T08:32:25.435Z,89.71
2018-07-31T08:33:34.698Z,88.26
2018-07-31T08:34:44.658Z,88.26
2018-07-31T08:35:53.846Z,88.3
2018-07-31T08:37:03.265Z,87.68
2018-07-31T08:38:12.611Z,86.75
2018-07-31T08:39:21.644Z,87.72
2018-07-31T08:40:31.083Z,87.33
2018-07-31T08:41:40.228Z,86.26
2018-07-31T08:42:50.090Z,86.16
2018-07-31T08:43:59.207Z,86.85
2018-07-31T08:45:08.499Z,87.47
2018-07-31T08:46:18.233Z,86.26
2018-07-31T08:47:27.304Z,87.37
2018-07-31T08:48:37.046Z,87.91
2018-07-31T08:49:46.331Z,87.62
2018-07-31T08:50:55.829Z,87.47
2018-07-31T08:52:05.595Z,87.47
2018-07-31T08:53:14.604Z,86.6
2018-07-31T08:54:24.161Z,87.37
2018-07-31T08:55:33.098Z,87.66
2018-07-31T08:56:42.072Z,87.37
2018-07-31T08:57:50.957Z,88.64
2018-07-31T08:59:00.104Z,86.79
2018-07-31T09:00:09.677Z,87.18
2018-07-31T09:01:18.547Z,86.79
2018-07-31T09:02:27.416Z,86.35
2018-07-31T09:03:36.284Z,87.03
2018-07-31T09:04:45.150Z,86.54
2018-07-31T09:05:54.118Z,86.64
2018-07-31T09:07:03.415Z,85.38
2018-07-31T09:08:12.314Z,85.18
2018-07-31T09:09:21.517Z,85.96
2018-07-31T09:10:30.384Z,85.28
2018-07-31T09:11:39.398Z,85.28
2018-07-31T09:12:48.548Z,86.74
2018-07-31T09:13:57.690Z,87.22
2018-07-31T09:15:06.559Z,87.61
2018-07-31T09:16:15.423Z,87.51
2018-07-31T09:17:24.477Z,86.44
2018-07-31T09:18:33.308Z,86.64
2018-07-31T09:19:42.645Z,86.83
2018-07-31T09:20:51.571Z,87.81
2018-07-31T09:22:00.389Z,88.97
2018-07-31T09:23:09.601Z,87.41
2018-07-31T09:24:18.499Z,87.03
2018-07-31T09:25:27.619Z,86.54
2018-07-31T09:26:36.485Z,84.64
2018-07-31T09:27:45.354Z,86.78
2018-07-31T09:28:54.372Z,86.88
2018-07-31T09:30:03.280Z,87.55
2018-07-31T09:31:12.436Z,84.93
2018-07-31T09:32:21.301Z,84.48
2018-07-31T09:33:30.171Z,84.1
2018-07-31T09:34:39.190Z,85.17
2018-07-31T09:35:48.063Z,86.88
2018-07-31T09:36:56.930Z,86.1
2018-07-31T09:38:06.114Z,84.99
2018-07-31T09:39:14.946Z,84.45
2018-07-31T09:40:23.965Z,85.9
2018-07-31T09:41:33.392Z,86.49
2018-07-31T09:42:42.927Z,86
2018-07-31T09:43:51.705Z,84.3
2018-07-31T09:45:00.573Z,84.25
2018-07-31T09:46:09.800Z,85.85
2018-07-31T09:47:18.941Z,85.27
2018-07-31T09:48:27.855Z,85.94
2018-07-31T09:49:37.049Z,85.46
2018-07-31T09:50:45.917Z,85.56
2018-07-31T09:51:54.783Z,85.07
2018-07-31T09:53:03.651Z,86.43
2018-07-31T09:54:12.524Z,85.56
2018-07-31T09:55:21.392Z,86.47
2018-07-31T09:56:30.263Z,86.67
2018-07-31T09:57:39.482Z,85.11
2018-07-31T09:58:48.351Z,83.75
2018-07-31T09:59:57.499Z,84.82
2018-07-31T10:01:06.659Z,85.21
2018-07-31T10:02:15.532Z,85.31
2018-07-31T10:03:25.237Z,85.31
2018-07-31T10:04:34.107Z,83.26
2018-07-31T10:05:42.977Z,83.31
2018-07-31T10:06:51.846Z,83.89
2018-07-31T10:08:00.714Z,83.89
2018-07-31T10:09:09.582Z,83.79
2018-07-31T10:10:18.453Z,83.64
2018-07-31T10:11:27.320Z,83.34
2018-07-31T10:12:36.189Z,84.32
2018-07-31T10:13:45.058Z,82.57
2018-07-31T10:14:54.031Z,82.57
2018-07-31T10:16:02.899Z,82.18
2018-07-31T10:17:11.767Z,82.96
2018-07-31T10:18:20.661Z,82.67
2018-07-31T10:19:29.506Z,83.15
2018-07-31T10:20:38.426Z,83.64
2018-07-31T10:21:47.580Z,82.8
2018-07-31T10:22:56.449Z,82.12
2018-07-31T10:24:05.379Z,81.24
2018-07-31T10:25:14.184Z,80.36
2018-07-31T10:26:23.484Z,82.41
2018-07-31T10:27:32.357Z,80.27
2018-07-31T10:28:41.227Z,80.07
2018-07-31T10:29:50.101Z,80.36
2018-07-31T10:30:59.632Z,80.27
2018-07-31T10:32:08.354Z,82.8
2018-07-31T10:33:17.222Z,81.05
2018-07-31T10:34:26.097Z,80.36
2018-07-31T10:35:34.963Z,81.38
2018-07-31T10:36:43.832Z,79.24
2018-07-31T10:37:52.869Z,81.38
2018-07-31T10:39:01.726Z,80.9
2018-07-31T10:40:10.596Z,81.48
2018-07-31T10:41:19.742Z,80.9
2018-07-31T10:42:28.621Z,81.09
2018-07-31T10:43:37.965Z,81.09
2018-07-31T10:44:46.786Z,82.55
2018-07-31T10:45:55.655Z,80.31
2018-07-31T10:47:04.525Z,78.65
2018-07-31T10:48:13.397Z,78.2
2018-07-31T10:49:22.418Z,77.42
2018-07-31T10:50:31.316Z,74.4
2018-07-31T10:51:40.826Z,75.99
2018-07-31T10:52:49.668Z,75.6
2018-07-31T10:53:58.811Z,75.31
2018-07-31T10:55:07.728Z,74.73
2018-07-31T10:56:16.569Z,76.09
2018-07-31T10:57:25.718Z,75.21
2018-07-31T10:58:34.708Z,75.45
2018-07-31T10:59:44.558Z,76.03
2018-07-31T11:00:53.632Z,74.38
2018-07-31T11:02:03.058Z,75.99
2018-07-31T11:03:12.078Z,73.85
2018-07-31T11:04:21.371Z,74.28
2018-07-31T11:05:30.169Z,74.54
2018-07-31T11:06:39.192Z,76.19
2018-07-31T11:07:48.106Z,75.9
2018-07-31T11:08:56.937Z,76.48
2018-07-31T11:10:05.809Z,75.41
2018-07-31T11:11:14.679Z,75.15
2018-07-31T11:12:23.938Z,73.54
2018-07-31T11:13:32.811Z,73.34
2018-07-31T11:14:41.750Z,74.22
2018-07-31T11:15:50.621Z,72.85
2018-07-31T11:16:59.492Z,72.17
2018-07-31T11:18:08.715Z,73.08
2018-07-31T11:19:17.588Z,74.05
2018-07-31T11:20:26.458Z,72.85
2018-07-31T11:21:35.381Z,75.59
2018-07-31T11:22:44.288Z,73.14
2018-07-31T11:23:53.524Z,73.05
2018-07-31T11:25:02.682Z,71.97
2018-07-31T11:26:11.551Z,71.58
2018-07-31T11:27:20.430Z,69.37
2018-07-31T11:28:29.937Z,70.87
2018-07-31T11:29:38.850Z,67.83
2018-07-31T11:30:48.093Z,67.87
2018-07-31T11:31:57.276Z,65.72
2018-07-31T11:33:06.206Z,67.19
2018-07-31T11:34:15.055Z,65.26
2018-07-31T11:35:23.925Z,64.77
2018-07-31T11:36:32.796Z,63.79
2018-07-31T11:37:41.666Z,62.95
2018-07-31T11:38:50.561Z,63.76
2018-07-31T11:39:59.446Z,63.95
2018-07-31T11:41:08.335Z,60.36
2018-07-31T11:42:17.483Z,59.08
2018-07-31T11:43:26.355Z,59.67
2018-07-31T11:44:35.233Z,58.3
2018-07-31T11:45:44.103Z,58.3
2018-07-31T11:46:53.328Z,57.91
2018-07-31T11:48:02.531Z,57.2
2018-07-31T11:49:11.686Z,57.98
2018-07-31T11:50:20.842Z,59.08
2018-07-31T11:51:29.712Z,58.17
2018-07-31T11:52:38.964Z,57.91
2018-07-31T11:53:47.837Z,57.71
2018-07-31T11:54:57.263Z,56.37
2018-07-31T11:56:06.425Z,55.12
2018-07-31T11:57:15.572Z,54.46
2018-07-31T11:58:24.445Z,53.55
2018-07-31T11:59:33.317Z,52.96
2018-07-31T12:00:42.192Z,54.04
2018-07-31T12:01:51.089Z,54.33
2018-07-31T12:02:59.938Z,55
2018-07-31T12:04:09.488Z,55.49
2018-07-31T12:05:18.630Z,55.78
2018-07-31T12:06:27.780Z,55.39
2018-07-31T12:07:36.931Z,55
2018-07-31T12:08:45.817Z,55.12
2018-07-31T12:09:54.737Z,54.36
2018-07-31T12:11:03.558Z,54.27
2018-07-31T12:12:12.432Z,54
2018-07-31T12:13:21.307Z,54
2018-07-31T12:14:30.187Z,53.02
2018-07-31T12:15:39.767Z,52.75
2018-07-31T12:16:48.641Z,51.17
2018-07-31T12:17:57.831Z,51.25
2018-07-31T12:19:06.723Z,51.69
2018-07-31T12:20:15.541Z,48.47
2018-07-31T12:21:24.417Z,49.46
2018-07-31T12:22:33.293Z,48.37
2018-07-31T12:23:42.174Z,49.26
2018-07-31T12:24:51.050Z,49.06
2018-07-31T12:25:59.927Z,49.65
2018-07-31T12:27:08.805Z,49.35
2018-07-31T12:28:17.687Z,49.38
2018-07-31T12:29:26.566Z,50.39
2018-07-31T12:30:35.725Z,50.34
2018-07-31T12:31:44.705Z,49.55
2018-07-31T12:32:54.379Z,50.16
2018-07-31T12:34:03.506Z,49.4
2018-07-31T12:35:12.659Z,49.33
2018-07-31T12:36:21.538Z,48.27
2018-07-31T12:37:30.414Z,48.07
2018-07-31T12:38:39.293Z,48.66
2018-07-31T12:39:48.321Z,48.27
2018-07-31T12:40:57.349Z,48.39
2018-07-31T12:42:06.524Z,48.17
2018-07-31T12:43:15.404Z,49.18
2018-07-31T12:44:24.313Z,49.16
2018-07-31T12:45:33.199Z,49.33
2018-07-31T12:46:42.923Z,50.78
2018-07-31T12:47:52.551Z,51.84
2018-07-31T12:49:01.843Z,51.32
2018-07-31T12:50:12.548Z,51.93
2018-07-31T12:51:21.979Z,50.76
2018-07-31T12:52:31.125Z,50.76
2018-07-31T12:53:40.660Z,50.66
2018-07-31T12:54:50.746Z,50.56
2018-07-31T12:55:59.638Z,50.29
2018-07-31T12:57:08.801Z,49.62
2018-07-31T12:58:17.930Z,48.54
2018-07-31T12:59:26.810Z,48.27
2018-07-31T13:00:35.696Z,47.88
2018-07-31T13:01:44.586Z,47.5
2018-07-31T13:02:53.804Z,47.31
2018-07-31T13:04:02.968Z,47.03
2018-07-31T13:05:12.123Z,47.53
2018-07-31T13:06:21.380Z,46.64
2018-07-31T13:07:30.260Z,45.56
2018-07-31T13:08:39.142Z,45.57
2018-07-31T13:09:48.134Z,45.46
2018-07-31T13:10:57.295Z,44.96
2018-07-31T13:12:06.242Z,43.29
2018-07-31T13:13:16.279Z,42.87
2018-07-31T13:14:25.281Z,43.68
2018-07-31T13:15:34.210Z,43.68
2018-07-31T13:16:43.220Z,44.69
2018-07-31T13:17:52.235Z,44.65
2018-07-31T13:19:01.178Z,44.1
2018-07-31T13:20:10.013Z,43.51
2018-07-31T13:21:18.894Z,43.31
2018-07-31T13:22:27.787Z,42.89
2018-07-31T13:23:36.950Z,43.29
2018-07-31T13:24:45.978Z,43.27
2018-07-31T13:25:55.605Z,43.37
2018-07-31T13:27:05.045Z,43.29
2018-07-31T13:28:13.932Z,42.82
2018-07-31T13:29:22.815Z,42.42
2018-07-31T13:30:31.695Z,42.42
2018-07-31T13:31:40.877Z,42.72
2018-07-31T13:32:49.759Z,43.78
2018-07-31T13:33:58.639Z,43.84
2018-07-31T13:35:07.674Z,44.13
2018-07-31T13:36:16.831Z,43.56
2018-07-31T13:37:26.043Z,44.18
2018-07-31T13:38:34.927Z,42.82
2018-07-31T13:39:43.807Z,42.93
2018-07-31T13:40:52.877Z,41.65
2018-07-31T13:42:01.720Z,41.36
2018-07-31T13:43:10.604Z,41.16
2018-07-31T13:44:19.764Z,41.46
2018-07-31T13:45:28.645Z,41.95
2018-07-31T13:46:37.626Z,41.43
2018-07-31T13:47:46.788Z,41.46
2018-07-31T13:48:55.671Z,41.3
2018-07-31T13:50:04.832Z,41.17
2018-07-31T13:51:13.713Z,42.07
2018-07-31T13:52:22.600Z,41.17
2018-07-31T13:53:31.486Z,41.17
2018-07-31T13:54:40.369Z,40.41
2018-07-31T13:55:49.251Z,39.64
2018-07-31T13:56:58.132Z,40.64
2018-07-31T13:58:07.077Z,41.14
2018-07-31T13:59:16.107Z,40.78
2018-07-31T14:00:26.089Z,40.29
2018-07-31T14:01:35.415Z,41.3
2018-07-31T14:02:45.065Z,41.59
2018-07-31T14:03:54.452Z,41.57
2018-07-31T14:05:03.758Z,42.05
2018-07-31T14:06:13.048Z,42.14
2018-07-31T14:07:22.277Z,41.75
2018-07-31T14:08:31.583Z,41.57
2018-07-31T14:09:41.174Z,42.85
2018-07-31T14:10:50.323Z,42.72
2018-07-31T14:11:59.485Z,42.05
2018-07-31T14:13:08.443Z,41.83
2018-07-31T14:14:17.323Z,41.85
2018-07-31T14:15:26.208Z,41.83
2018-07-31T14:16:35.092Z,41.71
2018-07-31T14:17:43.974Z,41.53
2018-07-31T14:18:52.894Z,40.86
2018-07-31T14:20:02.176Z,41.36
2018-07-31T14:21:11.085Z,41.36
2018-07-31T14:22:20.256Z,41.28
2018-07-31T14:23:29.494Z,40.53
2018-07-31T14:24:38.375Z,41.3
2018-07-31T14:25:47.257Z,40.92
2018-07-31T14:26:56.569Z,40.72
2018-07-31T14:28:05.449Z,40.23
2018-07-31T14:29:14.332Z,40.33
2018-07-31T14:30:23.263Z,40.25
2018-07-31T14:31:32.126Z,39.95
2018-07-31T14:32:41.361Z,38.78
2018-07-31T14:33:50.247Z,39.37
2018-07-31T14:34:59.439Z,39.95
2018-07-31T14:36:08.333Z,39.95
2018-07-31T14:37:17.217Z,40.74
2018-07-31T14:38:26.453Z,40.74
2018-07-31T14:39:35.416Z,41.22
2018-07-31T14:40:45.200Z,41.57
2018-07-31T14:41:54.103Z,42.46
2018-07-31T14:43:03.360Z,43.15
2018-07-31T14:44:12.703Z,41.69
2018-07-31T14:45:22.150Z,41.79
2018-07-31T14:46:31.034Z,41.39
2018-07-31T14:47:39.916Z,40.63
2018-07-31T14:48:48.802Z,40.45
2018-07-31T14:49:58.690Z,41.44
2018-07-31T14:51:07.574Z,41.41
2018-07-31T14:52:16.458Z,41.44